sensor_id;sensor_type;location;lat;lon;timestamp;P1;durP1;ratioP1;P2;durP2;ratioP2
22320;SDS011;11328;53.928;18.522;2022-12-10T00:01:39;62.83;;;35.90;;
22320;SDS011;11328;53.928;18.522;2022-12-10T00:04:10;52.90;;;31.27;;
22320;SDS011;11328;53.928;18.522;2022-12-10T00:06:38;57.08;;;31.83;;
22320;SDS011;11328;53.928;18.522;2022-12-10T00:09:09;59.65;;;33.40;;
22320;SDS011;11328;53.928;18.522;2022-12-10T00:11:41;61.30;;;35.40;;
22320;SDS011;11328;53.928;18.522;2022-12-10T00:14:08;60.55;;;34.58;;
22320;SDS011;11328;53.928;18.522;2022-12-10T00:16:38;61.70;;;35.50;;
22320;SDS011;11328;53.928;18.522;2022-12-10T00:19:08;60.78;;;34.78;;
22320;SDS011;11328;53.928;18.522;2022-12-10T00:21:35;60.17;;;32.45;;
22320;SDS011;11328;53.928;18.522;2022-12-10T00:36:33;54.70;;;34.47;;
22320;SDS011;11328;53.928;18.522;2022-12-10T00:39:04;50.93;;;30.63;;
22320;SDS011;11328;53.928;18.522;2022-12-10T00:41:31;52.67;;;28.30;;
22320;SDS011;11328;53.928;18.522;2022-12-10T00:43:59;47.38;;;27.63;;
22320;SDS011;11328;53.928;18.522;2022-12-10T00:46:26;52.67;;;28.63;;
22320;SDS011;11328;53.928;18.522;2022-12-10T00:48:54;47.90;;;26.95;;
22320;SDS011;11328;53.928;18.522;2022-12-10T00:51:22;44.53;;;25.98;;
22320;SDS011;11328;53.928;18.522;2022-12-10T00:53:52;42.08;;;23.23;;
22320;SDS011;11328;53.928;18.522;2022-12-10T00:56:22;44.53;;;23.95;;
22320;SDS011;11328;53.928;18.522;2022-12-10T00:58:52;41.75;;;24.00;;
22320;SDS011;11328;53.928;18.522;2022-12-10T01:01:20;42.17;;;24.75;;
22320;SDS011;11328;53.928;18.522;2022-12-10T01:03:52;49.40;;;27.25;;
22320;SDS011;11328;53.928;18.522;2022-12-10T01:08:55;41.20;;;23.83;;
22320;SDS011;11328;53.928;18.522;2022-12-10T01:11:28;37.70;;;21.90;;
22320;SDS011;11328;53.928;18.522;2022-12-10T01:13:58;44.58;;;23.27;;
22320;SDS011;11328;53.928;18.522;2022-12-10T01:16:26;41.35;;;23.10;;
22320;SDS011;11328;53.928;18.522;2022-12-10T01:18:54;33.05;;;18.17;;
22320;SDS011;11328;53.928;18.522;2022-12-10T01:21:24;37.08;;;21.80;;
22320;SDS011;11328;53.928;18.522;2022-12-10T01:23:54;36.15;;;20.98;;
22320;SDS011;11328;53.928;18.522;2022-12-10T01:26:22;37.58;;;21.77;;
22320;SDS011;11328;53.928;18.522;2022-12-10T01:28:53;34.67;;;20.08;;
22320;SDS011;11328;53.928;18.522;2022-12-10T01:31:22;29.15;;;17.52;;
22320;SDS011;11328;53.928;18.522;2022-12-10T01:33:56;37.95;;;19.48;;
22320;SDS011;11328;53.928;18.522;2022-12-10T01:36:25;31.83;;;18.58;;
22320;SDS011;11328;53.928;18.522;2022-12-10T01:38:58;32.05;;;18.23;;
22320;SDS011;11328;53.928;18.522;2022-12-10T01:41:32;37.45;;;19.00;;
22320;SDS011;11328;53.928;18.522;2022-12-10T01:44:53;32.55;;;18.83;;
22320;SDS011;11328;53.928;18.522;2022-12-10T01:46:51;35.92;;;20.88;;
22320;SDS011;11328;53.928;18.522;2022-12-10T01:49:25;36.75;;;21.70;;
22320;SDS011;11328;53.928;18.522;2022-12-10T01:52:02;36.10;;;19.00;;
22320;SDS011;11328;53.928;18.522;2022-12-10T01:54:34;37.83;;;20.75;;
22320;SDS011;11328;53.928;18.522;2022-12-10T01:59:39;38.75;;;19.83;;
22320;SDS011;11328;53.928;18.522;2022-12-10T02:02:33;32.40;;;17.63;;
22320;SDS011;11328;53.928;18.522;2022-12-10T02:05:04;24.67;;;13.77;;
22320;SDS011;11328;53.928;18.522;2022-12-10T02:11:02;33.53;;;18.92;;
22320;SDS011;11328;53.928;18.522;2022-12-10T02:17:02;35.60;;;19.83;;
22320;SDS011;11328;53.928;18.522;2022-12-10T02:22:34;33.88;;;20.38;;
22320;SDS011;11328;53.928;18.522;2022-12-10T02:25:12;34.92;;;20.27;;
22320;SDS011;11328;53.928;18.522;2022-12-10T02:27:52;34.38;;;19.30;;
22320;SDS011;11328;53.928;18.522;2022-12-10T02:30:34;36.65;;;19.17;;
22320;SDS011;11328;53.928;18.522;2022-12-10T02:33:05;33.28;;;18.75;;
22320;SDS011;11328;53.928;18.522;2022-12-10T02:35:36;38.35;;;20.63;;
22320;SDS011;11328;53.928;18.522;2022-12-10T02:38:14;36.08;;;20.13;;
22320;SDS011;11328;53.928;18.522;2022-12-10T02:40:53;37.65;;;20.98;;
22320;SDS011;11328;53.928;18.522;2022-12-10T02:43:29;38.22;;;21.08;;
22320;SDS011;11328;53.928;18.522;2022-12-10T02:45:58;31.02;;;18.98;;
22320;SDS011;11328;53.928;18.522;2022-12-10T02:48:30;33.67;;;19.23;;
22320;SDS011;11328;53.928;18.522;2022-12-10T02:51:00;34.00;;;18.33;;
22320;SDS011;11328;53.928;18.522;2022-12-10T02:53:28;31.33;;;18.35;;
22320;SDS011;11328;53.928;18.522;2022-12-10T02:56:42;31.35;;;17.48;;
22320;SDS011;11328;53.928;18.522;2022-12-10T03:05:02;30.75;;;17.38;;
22320;SDS011;11328;53.928;18.522;2022-12-10T03:07:48;30.70;;;17.80;;
22320;SDS011;11328;53.928;18.522;2022-12-10T03:13:43;34.30;;;17.70;;
22320;SDS011;11328;53.928;18.522;2022-12-10T03:16:23;30.33;;;17.75;;
22320;SDS011;11328;53.928;18.522;2022-12-10T03:18:56;32.07;;;18.27;;
22320;SDS011;11328;53.928;18.522;2022-12-10T03:21:30;29.85;;;17.10;;
22320;SDS011;11328;53.928;18.522;2022-12-10T03:24:02;31.27;;;17.67;;
22320;SDS011;11328;53.928;18.522;2022-12-10T03:26:31;29.85;;;16.65;;
22320;SDS011;11328;53.928;18.522;2022-12-10T03:29:08;30.20;;;17.15;;
22320;SDS011;11328;53.928;18.522;2022-12-10T03:31:42;32.15;;;16.15;;
22320;SDS011;11328;53.928;18.522;2022-12-10T03:34:10;28.65;;;16.30;;
22320;SDS011;11328;53.928;18.522;2022-12-10T03:36:39;28.75;;;15.88;;
22320;SDS011;11328;53.928;18.522;2022-12-10T03:39:08;27.00;;;15.98;;
22320;SDS011;11328;53.928;18.522;2022-12-10T03:41:36;29.13;;;16.30;;
22320;SDS011;11328;53.928;18.522;2022-12-10T03:44:03;25.80;;;15.10;;
22320;SDS011;11328;53.928;18.522;2022-12-10T03:46:31;28.42;;;17.50;;
22320;SDS011;11328;53.928;18.522;2022-12-10T03:48:59;28.48;;;16.38;;
22320;SDS011;11328;53.928;18.522;2022-12-10T03:51:30;31.48;;;17.08;;
22320;SDS011;11328;53.928;18.522;2022-12-10T03:53:57;26.77;;;15.00;;
22320;SDS011;11328;53.928;18.522;2022-12-10T03:56:24;24.38;;;14.25;;
22320;SDS011;11328;53.928;18.522;2022-12-10T03:58:51;26.83;;;14.77;;
22320;SDS011;11328;53.928;18.522;2022-12-10T04:01:18;27.02;;;15.23;;
22320;SDS011;11328;53.928;18.522;2022-12-10T04:03:45;26.85;;;14.85;;
22320;SDS011;11328;53.928;18.522;2022-12-10T04:06:13;28.63;;;15.35;;
22320;SDS011;11328;53.928;18.522;2022-12-10T04:08:45;23.60;;;13.55;;
22320;SDS011;11328;53.928;18.522;2022-12-10T04:11:13;26.20;;;14.27;;
22320;SDS011;11328;53.928;18.522;2022-12-10T04:13:42;23.30;;;12.63;;
22320;SDS011;11328;53.928;18.522;2022-12-10T04:16:29;23.85;;;13.77;;
22320;SDS011;11328;53.928;18.522;2022-12-10T04:19:08;23.38;;;13.55;;
22320;SDS011;11328;53.928;18.522;2022-12-10T04:21:39;23.33;;;14.52;;
22320;SDS011;11328;53.928;18.522;2022-12-10T04:24:28;23.23;;;15.10;;
22320;SDS011;11328;53.928;18.522;2022-12-10T04:29:53;23.10;;;13.50;;
22320;SDS011;11328;53.928;18.522;2022-12-10T04:32:22;22.88;;;13.98;;
22320;SDS011;11328;53.928;18.522;2022-12-10T04:34:52;25.63;;;14.63;;
22320;SDS011;11328;53.928;18.522;2022-12-10T04:37:20;24.48;;;14.50;;
22320;SDS011;11328;53.928;18.522;2022-12-10T04:39:49;27.45;;;15.27;;
22320;SDS011;11328;53.928;18.522;2022-12-10T04:42:17;26.65;;;15.90;;
22320;SDS011;11328;53.928;18.522;2022-12-10T04:44:46;25.33;;;14.65;;
22320;SDS011;11328;53.928;18.522;2022-12-10T04:47:16;25.25;;;15.07;;
22320;SDS011;11328;53.928;18.522;2022-12-10T04:49:43;26.42;;;15.07;;
22320;SDS011;11328;53.928;18.522;2022-12-10T04:52:11;27.02;;;15.60;;
22320;SDS011;11328;53.928;18.522;2022-12-10T04:54:40;27.15;;;16.13;;
22320;SDS011;11328;53.928;18.522;2022-12-10T04:57:08;28.67;;;17.00;;
22320;SDS011;11328;53.928;18.522;2022-12-10T04:59:37;29.67;;;17.33;;
22320;SDS011;11328;53.928;18.522;2022-12-10T05:02:04;29.88;;;17.23;;
22320;SDS011;11328;53.928;18.522;2022-12-10T05:04:32;29.10;;;16.80;;
22320;SDS011;11328;53.928;18.522;2022-12-10T05:06:59;27.90;;;17.60;;
22320;SDS011;11328;53.928;18.522;2022-12-10T05:09:26;28.92;;;17.10;;
22320;SDS011;11328;53.928;18.522;2022-12-10T05:11:53;26.65;;;16.02;;
22320;SDS011;11328;53.928;18.522;2022-12-10T05:14:20;29.90;;;16.48;;
22320;SDS011;11328;53.928;18.522;2022-12-10T05:28:08;25.30;;;15.75;;
22320;SDS011;11328;53.928;18.522;2022-12-10T05:30:36;26.15;;;15.13;;
22320;SDS011;11328;53.928;18.522;2022-12-10T05:33:03;24.95;;;14.75;;
22320;SDS011;11328;53.928;18.522;2022-12-10T05:35:30;24.55;;;13.93;;
22320;SDS011;11328;53.928;18.522;2022-12-10T05:37:57;25.05;;;14.40;;
22320;SDS011;11328;53.928;18.522;2022-12-10T05:40:24;23.08;;;12.95;;
22320;SDS011;11328;53.928;18.522;2022-12-10T05:42:51;24.05;;;13.15;;
22320;SDS011;11328;53.928;18.522;2022-12-10T05:45:18;21.98;;;12.82;;
22320;SDS011;11328;53.928;18.522;2022-12-10T05:47:45;25.88;;;12.65;;
22320;SDS011;11328;53.928;18.522;2022-12-10T05:50:12;23.20;;;12.80;;
22320;SDS011;11328;53.928;18.522;2022-12-10T05:52:39;21.00;;;12.40;;
22320;SDS011;11328;53.928;18.522;2022-12-10T05:55:06;22.80;;;13.32;;
22320;SDS011;11328;53.928;18.522;2022-12-10T05:57:33;20.42;;;11.88;;
22320;SDS011;11328;53.928;18.522;2022-12-10T06:00:03;21.35;;;11.77;;
22320;SDS011;11328;53.928;18.522;2022-12-10T06:02:32;20.35;;;12.70;;
22320;SDS011;11328;53.928;18.522;2022-12-10T06:04:59;20.45;;;11.65;;
22320;SDS011;11328;53.928;18.522;2022-12-10T06:07:27;20.60;;;12.13;;
22320;SDS011;11328;53.928;18.522;2022-12-10T06:09:56;21.95;;;12.25;;
22320;SDS011;11328;53.928;18.522;2022-12-10T06:12:23;22.92;;;14.10;;
22320;SDS011;11328;53.928;18.522;2022-12-10T06:14:50;38.22;;;21.60;;
22320;SDS011;11328;53.928;18.522;2022-12-10T06:17:16;35.78;;;21.58;;
22320;SDS011;11328;53.928;18.522;2022-12-10T06:19:43;36.47;;;21.45;;
22320;SDS011;11328;53.928;18.522;2022-12-10T06:22:11;36.85;;;20.80;;
22320;SDS011;11328;53.928;18.522;2022-12-10T06:24:38;32.72;;;18.92;;
22320;SDS011;11328;53.928;18.522;2022-12-10T06:27:05;32.42;;;18.67;;
22320;SDS011;11328;53.928;18.522;2022-12-10T06:29:32;29.23;;;17.65;;
22320;SDS011;11328;53.928;18.522;2022-12-10T06:31:59;32.28;;;17.85;;
22320;SDS011;11328;53.928;18.522;2022-12-10T06:34:26;31.02;;;18.48;;
22320;SDS011;11328;53.928;18.522;2022-12-10T06:36:53;28.38;;;16.88;;
22320;SDS011;11328;53.928;18.522;2022-12-10T06:39:20;28.90;;;16.83;;
22320;SDS011;11328;53.928;18.522;2022-12-10T06:41:47;28.05;;;16.55;;
22320;SDS011;11328;53.928;18.522;2022-12-10T06:44:13;27.25;;;16.70;;
22320;SDS011;11328;53.928;18.522;2022-12-10T06:46:40;29.73;;;17.40;;
22320;SDS011;11328;53.928;18.522;2022-12-10T06:49:08;29.17;;;17.55;;
22320;SDS011;11328;53.928;18.522;2022-12-10T06:51:35;31.38;;;18.42;;
22320;SDS011;11328;53.928;18.522;2022-12-10T06:54:04;28.63;;;17.15;;
22320;SDS011;11328;53.928;18.522;2022-12-10T06:56:31;27.08;;;16.90;;
22320;SDS011;11328;53.928;18.522;2022-12-10T06:58:58;27.50;;;16.75;;
22320;SDS011;11328;53.928;18.522;2022-12-10T07:01:25;28.25;;;16.77;;
22320;SDS011;11328;53.928;18.522;2022-12-10T07:03:53;26.95;;;16.83;;
22320;SDS011;11328;53.928;18.522;2022-12-10T07:06:23;29.77;;;16.92;;
22320;SDS011;11328;53.928;18.522;2022-12-10T07:08:54;28.73;;;17.80;;
22320;SDS011;11328;53.928;18.522;2022-12-10T07:11:22;26.80;;;16.33;;
22320;SDS011;11328;53.928;18.522;2022-12-10T07:13:51;29.23;;;16.88;;
22320;SDS011;11328;53.928;18.522;2022-12-10T07:16:19;26.23;;;16.30;;
22320;SDS011;11328;53.928;18.522;2022-12-10T07:18:49;27.95;;;16.98;;
22320;SDS011;11328;53.928;18.522;2022-12-10T07:21:19;28.40;;;17.00;;
22320;SDS011;11328;53.928;18.522;2022-12-10T07:23:57;30.05;;;18.00;;
22320;SDS011;11328;53.928;18.522;2022-12-10T07:26:30;28.95;;;17.40;;
22320;SDS011;11328;53.928;18.522;2022-12-10T07:29:01;33.75;;;18.40;;
22320;SDS011;11328;53.928;18.522;2022-12-10T07:31:30;32.28;;;17.77;;
22320;SDS011;11328;53.928;18.522;2022-12-10T07:33:58;33.03;;;18.67;;
22320;SDS011;11328;53.928;18.522;2022-12-10T07:36:26;32.28;;;19.25;;
22320;SDS011;11328;53.928;18.522;2022-12-10T07:38:54;32.88;;;20.13;;
22320;SDS011;11328;53.928;18.522;2022-12-10T07:41:22;35.13;;;19.77;;
22320;SDS011;11328;53.928;18.522;2022-12-10T07:43:50;44.53;;;24.08;;
22320;SDS011;11328;53.928;18.522;2022-12-10T07:48:49;83.47;;;38.65;;
22320;SDS011;11328;53.928;18.522;2022-12-10T07:51:17;80.10;;;38.42;;
22320;SDS011;11328;53.928;18.522;2022-12-10T07:53:47;60.13;;;31.55;;
22320;SDS011;11328;53.928;18.522;2022-12-10T07:56:18;48.80;;;26.40;;
22320;SDS011;11328;53.928;18.522;2022-12-10T07:58:45;37.05;;;21.48;;
22320;SDS011;11328;53.928;18.522;2022-12-10T08:01:13;39.50;;;23.42;;
22320;SDS011;11328;53.928;18.522;2022-12-10T08:03:44;37.15;;;22.10;;
22320;SDS011;11328;53.928;18.522;2022-12-10T08:06:13;39.35;;;22.80;;
22320;SDS011;11328;53.928;18.522;2022-12-10T08:08:43;45.70;;;28.40;;
22320;SDS011;11328;53.928;18.522;2022-12-10T08:11:12;56.72;;;33.60;;
22320;SDS011;11328;53.928;18.522;2022-12-10T08:13:41;45.72;;;26.92;;
22320;SDS011;11328;53.928;18.522;2022-12-10T08:16:15;42.40;;;24.88;;
22320;SDS011;11328;53.928;18.522;2022-12-10T08:18:45;47.97;;;25.83;;
22320;SDS011;11328;53.928;18.522;2022-12-10T08:21:13;49.15;;;30.13;;
22320;SDS011;11328;53.928;18.522;2022-12-10T08:23:45;55.22;;;34.90;;
22320;SDS011;11328;53.928;18.522;2022-12-10T08:26:14;55.97;;;35.08;;
22320;SDS011;11328;53.928;18.522;2022-12-10T08:28:47;51.58;;;30.90;;
22320;SDS011;11328;53.928;18.522;2022-12-10T08:31:16;53.10;;;31.65;;
22320;SDS011;11328;53.928;18.522;2022-12-10T08:33:46;54.22;;;30.83;;
22320;SDS011;11328;53.928;18.522;2022-12-10T08:36:14;54.63;;;30.48;;
22320;SDS011;11328;53.928;18.522;2022-12-10T08:38:43;55.35;;;32.92;;
22320;SDS011;11328;53.928;18.522;2022-12-10T08:41:12;56.67;;;33.05;;
22320;SDS011;11328;53.928;18.522;2022-12-10T08:43:46;53.15;;;30.58;;
22320;SDS011;11328;53.928;18.522;2022-12-10T08:46:14;55.67;;;32.17;;
22320;SDS011;11328;53.928;18.522;2022-12-10T08:48:42;61.05;;;33.42;;
22320;SDS011;11328;53.928;18.522;2022-12-10T08:51:11;64.47;;;36.92;;
22320;SDS011;11328;53.928;18.522;2022-12-10T08:53:42;64.90;;;38.38;;
22320;SDS011;11328;53.928;18.522;2022-12-10T08:56:10;76.40;;;44.08;;
22320;SDS011;11328;53.928;18.522;2022-12-10T08:58:38;88.10;;;46.08;;
22320;SDS011;11328;53.928;18.522;2022-12-10T09:01:11;92.05;;;48.30;;
22320;SDS011;11328;53.928;18.522;2022-12-10T09:03:44;86.68;;;46.60;;
22320;SDS011;11328;53.928;18.522;2022-12-10T09:19:39;92.43;;;56.00;;
22320;SDS011;11328;53.928;18.522;2022-12-10T09:22:06;82.38;;;49.22;;
22320;SDS011;11328;53.928;18.522;2022-12-10T09:24:34;45.35;;;28.40;;
22320;SDS011;11328;53.928;18.522;2022-12-10T09:27:02;45.70;;;28.83;;
22320;SDS011;11328;53.928;18.522;2022-12-10T09:29:29;46.90;;;26.88;;
22320;SDS011;11328;53.928;18.522;2022-12-10T09:31:56;47.90;;;28.80;;
22320;SDS011;11328;53.928;18.522;2022-12-10T09:34:23;47.05;;;28.52;;
22320;SDS011;11328;53.928;18.522;2022-12-10T09:36:50;62.35;;;37.30;;
22320;SDS011;11328;53.928;18.522;2022-12-10T09:39:17;60.53;;;34.83;;
22320;SDS011;11328;53.928;18.522;2022-12-10T09:50:29;53.45;;;30.83;;
22320;SDS011;11328;53.928;18.522;2022-12-10T09:53:08;48.33;;;29.23;;
22320;SDS011;11328;53.928;18.522;2022-12-10T09:55:45;47.08;;;25.95;;
22320;SDS011;11328;53.928;18.522;2022-12-10T09:58:16;42.70;;;23.92;;
22320;SDS011;11328;53.928;18.522;2022-12-10T10:00:59;42.90;;;22.90;;
22320;SDS011;11328;53.928;18.522;2022-12-10T10:03:32;34.45;;;19.85;;
22320;SDS011;11328;53.928;18.522;2022-12-10T10:06:04;37.20;;;22.33;;
22320;SDS011;11328;53.928;18.522;2022-12-10T10:08:40;40.97;;;22.95;;
22320;SDS011;11328;53.928;18.522;2022-12-10T10:11:22;40.13;;;22.63;;
22320;SDS011;11328;53.928;18.522;2022-12-10T10:16:53;30.20;;;18.55;;
22320;SDS011;11328;53.928;18.522;2022-12-10T10:19:28;33.08;;;19.08;;
22320;SDS011;11328;53.928;18.522;2022-12-10T10:21:59;32.90;;;20.80;;
22320;SDS011;11328;53.928;18.522;2022-12-10T10:24:31;36.45;;;20.45;;
22320;SDS011;11328;53.928;18.522;2022-12-10T10:29:39;31.63;;;19.75;;
22320;SDS011;11328;53.928;18.522;2022-12-10T10:32:13;35.85;;;21.48;;
22320;SDS011;11328;53.928;18.522;2022-12-10T10:34:47;34.78;;;21.23;;
22320;SDS011;11328;53.928;18.522;2022-12-10T10:39:55;36.80;;;22.58;;
22320;SDS011;11328;53.928;18.522;2022-12-10T10:50:47;35.20;;;21.75;;
22320;SDS011;11328;53.928;18.522;2022-12-10T10:56:22;28.95;;;16.77;;
22320;SDS011;11328;53.928;18.522;2022-12-10T10:58:57;30.38;;;17.48;;
22320;SDS011;11328;53.928;18.522;2022-12-10T11:01:49;30.02;;;17.65;;
22320;SDS011;11328;53.928;18.522;2022-12-10T11:04:23;27.98;;;17.20;;
22320;SDS011;11328;53.928;18.522;2022-12-10T11:07:00;27.27;;;16.10;;
22320;SDS011;11328;53.928;18.522;2022-12-10T11:09:34;29.17;;;16.73;;
22320;SDS011;11328;53.928;18.522;2022-12-10T11:12:04;30.37;;;17.30;;
22320;SDS011;11328;53.928;18.522;2022-12-10T11:14:46;32.55;;;18.98;;
22320;SDS011;11328;53.928;18.522;2022-12-10T11:17:18;28.60;;;16.27;;
22320;SDS011;11328;53.928;18.522;2022-12-10T11:19:56;30.42;;;16.50;;
22320;SDS011;11328;53.928;18.522;2022-12-10T11:22:31;34.90;;;17.75;;
22320;SDS011;11328;53.928;18.522;2022-12-10T11:25:00;26.15;;;14.93;;
22320;SDS011;11328;53.928;18.522;2022-12-10T11:27:31;30.58;;;16.55;;
22320;SDS011;11328;53.928;18.522;2022-12-10T11:30:22;29.35;;;16.23;;
22320;SDS011;11328;53.928;18.522;2022-12-10T11:41:38;39.10;;;21.65;;
22320;SDS011;11328;53.928;18.522;2022-12-10T11:44:32;36.85;;;19.60;;
22320;SDS011;11328;53.928;18.522;2022-12-10T11:50:07;33.55;;;20.40;;
22320;SDS011;11328;53.928;18.522;2022-12-10T11:52:43;36.20;;;20.80;;
22320;SDS011;11328;53.928;18.522;2022-12-10T11:58:59;41.35;;;22.58;;
22320;SDS011;11328;53.928;18.522;2022-12-10T12:07:59;34.17;;;18.65;;
22320;SDS011;11328;53.928;18.522;2022-12-10T12:14:21;35.08;;;19.13;;
22320;SDS011;11328;53.928;18.522;2022-12-10T12:17:04;32.03;;;17.40;;
22320;SDS011;11328;53.928;18.522;2022-12-10T12:19:54;32.97;;;18.88;;
22320;SDS011;11328;53.928;18.522;2022-12-10T12:22:29;35.50;;;20.25;;
22320;SDS011;11328;53.928;18.522;2022-12-10T12:25:05;44.35;;;25.83;;
22320;SDS011;11328;53.928;18.522;2022-12-10T12:28:05;53.67;;;31.50;;
22320;SDS011;11328;53.928;18.522;2022-12-10T12:30:39;28.75;;;17.52;;
22320;SDS011;11328;53.928;18.522;2022-12-10T12:33:13;27.48;;;16.88;;
22320;SDS011;11328;53.928;18.522;2022-12-10T12:36:12;26.83;;;14.13;;
22320;SDS011;11328;53.928;18.522;2022-12-10T12:38:51;24.60;;;15.50;;
22320;SDS011;11328;53.928;18.522;2022-12-10T12:41:40;26.02;;;15.82;;
22320;SDS011;11328;53.928;18.522;2022-12-10T12:47:13;32.38;;;18.67;;
22320;SDS011;11328;53.928;18.522;2022-12-10T12:49:56;30.77;;;17.38;;
22320;SDS011;11328;53.928;18.522;2022-12-10T12:52:37;30.77;;;17.27;;
22320;SDS011;11328;53.928;18.522;2022-12-10T12:55:50;29.98;;;17.88;;
22320;SDS011;11328;53.928;18.522;2022-12-10T13:01:08;31.33;;;18.25;;
22320;SDS011;11328;53.928;18.522;2022-12-10T13:03:58;33.25;;;19.02;;
22320;SDS011;11328;53.928;18.522;2022-12-10T13:06:31;28.90;;;15.60;;
22320;SDS011;11328;53.928;18.522;2022-12-10T13:11:59;23.75;;;13.13;;
22320;SDS011;11328;53.928;18.522;2022-12-10T13:17:35;28.48;;;14.90;;
22320;SDS011;11328;53.928;18.522;2022-12-10T13:25:58;18.00;;;11.05;;
22320;SDS011;11328;53.928;18.522;2022-12-10T13:31:21;24.63;;;11.60;;
22320;SDS011;11328;53.928;18.522;2022-12-10T13:39:22;30.73;;;15.88;;
22320;SDS011;11328;53.928;18.522;2022-12-10T13:47:23;21.15;;;10.73;;
22320;SDS011;11328;53.928;18.522;2022-12-10T13:50:48;23.65;;;12.52;;
22320;SDS011;11328;53.928;18.522;2022-12-10T13:56:52;35.88;;;16.45;;
22320;SDS011;11328;53.928;18.522;2022-12-10T14:00:17;30.30;;;15.15;;
22320;SDS011;11328;53.928;18.522;2022-12-10T14:02:52;27.27;;;13.55;;
22320;SDS011;11328;53.928;18.522;2022-12-10T14:05:37;34.10;;;16.98;;
22320;SDS011;11328;53.928;18.522;2022-12-10T14:10:59;44.05;;;19.67;;
22320;SDS011;11328;53.928;18.522;2022-12-10T14:13:33;40.08;;;20.30;;
22320;SDS011;11328;53.928;18.522;2022-12-10T14:16:11;67.63;;;29.42;;
22320;SDS011;11328;53.928;18.522;2022-12-10T14:18:42;110.68;;;55.55;;
22320;SDS011;11328;53.928;18.522;2022-12-10T14:21:16;89.32;;;49.33;;
22320;SDS011;11328;53.928;18.522;2022-12-10T14:23:45;37.08;;;21.08;;
22320;SDS011;11328;53.928;18.522;2022-12-10T14:26:25;32.63;;;16.92;;
22320;SDS011;11328;53.928;18.522;2022-12-10T14:28:57;40.15;;;21.02;;
22320;SDS011;11328;53.928;18.522;2022-12-10T14:31:54;34.13;;;17.90;;
22320;SDS011;11328;53.928;18.522;2022-12-10T14:34:23;42.75;;;26.90;;
22320;SDS011;11328;53.928;18.522;2022-12-10T14:36:54;44.20;;;25.95;;
22320;SDS011;11328;53.928;18.522;2022-12-10T14:39:27;46.60;;;26.35;;
22320;SDS011;11328;53.928;18.522;2022-12-10T14:42:02;64.40;;;37.22;;
22320;SDS011;11328;53.928;18.522;2022-12-10T14:44:34;42.28;;;23.73;;
22320;SDS011;11328;53.928;18.522;2022-12-10T14:47:10;37.17;;;20.65;;
22320;SDS011;11328;53.928;18.522;2022-12-10T14:49:49;34.30;;;18.48;;
22320;SDS011;11328;53.928;18.522;2022-12-10T14:52:21;41.83;;;22.13;;
22320;SDS011;11328;53.928;18.522;2022-12-10T14:54:58;64.15;;;35.17;;
22320;SDS011;11328;53.928;18.522;2022-12-10T14:57:30;71.32;;;40.85;;
22320;SDS011;11328;53.928;18.522;2022-12-10T15:00:12;88.43;;;42.88;;
22320;SDS011;11328;53.928;18.522;2022-12-10T15:02:47;83.50;;;36.72;;
22320;SDS011;11328;53.928;18.522;2022-12-10T15:07:54;51.50;;;24.90;;
22320;SDS011;11328;53.928;18.522;2022-12-10T15:13:00;49.90;;;27.05;;
22320;SDS011;11328;53.928;18.522;2022-12-10T15:15:35;38.55;;;22.00;;
22320;SDS011;11328;53.928;18.522;2022-12-10T15:20:43;80.45;;;42.58;;
22320;SDS011;11328;53.928;18.522;2022-12-10T15:26:04;64.53;;;38.97;;
22320;SDS011;11328;53.928;18.522;2022-12-10T15:32:11;45.08;;;25.65;;
22320;SDS011;11328;53.928;18.522;2022-12-10T15:34:47;41.25;;;21.27;;
22320;SDS011;11328;53.928;18.522;2022-12-10T15:37:31;45.97;;;23.65;;
22320;SDS011;11328;53.928;18.522;2022-12-10T15:40:06;36.53;;;19.00;;
22320;SDS011;11328;53.928;18.522;2022-12-10T15:42:51;37.83;;;20.42;;
22320;SDS011;11328;53.928;18.522;2022-12-10T15:47:55;31.35;;;16.75;;
22320;SDS011;11328;53.928;18.522;2022-12-10T15:50:25;32.35;;;17.75;;
22320;SDS011;11328;53.928;18.522;2022-12-10T15:52:53;30.17;;;17.85;;
22320;SDS011;11328;53.928;18.522;2022-12-10T15:55:20;32.75;;;19.02;;
22320;SDS011;11328;53.928;18.522;2022-12-10T15:57:47;29.95;;;16.58;;
22320;SDS011;11328;53.928;18.522;2022-12-10T16:00:25;28.88;;;16.48;;
22320;SDS011;11328;53.928;18.522;2022-12-10T16:05:29;62.67;;;27.17;;
22320;SDS011;11328;53.928;18.522;2022-12-10T16:08:00;63.38;;;26.95;;
22320;SDS011;11328;53.928;18.522;2022-12-10T16:10:38;75.38;;;33.47;;
22320;SDS011;11328;53.928;18.522;2022-12-10T16:13:05;82.00;;;34.47;;
22320;SDS011;11328;53.928;18.522;2022-12-10T16:15:43;70.28;;;31.48;;
22320;SDS011;11328;53.928;18.522;2022-12-10T16:18:20;71.50;;;38.00;;
22320;SDS011;11328;53.928;18.522;2022-12-10T16:20:48;56.63;;;29.30;;
22320;SDS011;11328;53.928;18.522;2022-12-10T16:23:17;68.85;;;37.55;;
22320;SDS011;11328;53.928;18.522;2022-12-10T16:25:45;71.28;;;36.40;;
22320;SDS011;11328;53.928;18.522;2022-12-10T16:28:14;71.90;;;33.28;;
22320;SDS011;11328;53.928;18.522;2022-12-10T16:30:45;62.03;;;30.30;;
22320;SDS011;11328;53.928;18.522;2022-12-10T16:33:22;60.22;;;29.63;;
22320;SDS011;11328;53.928;18.522;2022-12-10T16:35:51;63.75;;;29.85;;
22320;SDS011;11328;53.928;18.522;2022-12-10T16:38:20;66.32;;;31.83;;
22320;SDS011;11328;53.928;18.522;2022-12-10T16:40:50;57.13;;;29.88;;
22320;SDS011;11328;53.928;18.522;2022-12-10T16:43:18;56.80;;;30.17;;
22320;SDS011;11328;53.928;18.522;2022-12-10T16:45:51;57.38;;;29.25;;
22320;SDS011;11328;53.928;18.522;2022-12-10T16:48:19;58.25;;;35.22;;
22320;SDS011;11328;53.928;18.522;2022-12-10T16:50:49;56.80;;;31.33;;
22320;SDS011;11328;53.928;18.522;2022-12-10T16:53:21;50.40;;;26.73;;
22320;SDS011;11328;53.928;18.522;2022-12-10T16:55:52;50.50;;;27.55;;
22320;SDS011;11328;53.928;18.522;2022-12-10T16:58:21;40.97;;;24.23;;
22320;SDS011;11328;53.928;18.522;2022-12-10T17:00:51;40.10;;;21.42;;
22320;SDS011;11328;53.928;18.522;2022-12-10T17:03:22;39.90;;;21.65;;
22320;SDS011;11328;53.928;18.522;2022-12-10T17:06:01;58.17;;;32.90;;
22320;SDS011;11328;53.928;18.522;2022-12-10T17:08:29;78.43;;;41.42;;
22320;SDS011;11328;53.928;18.522;2022-12-10T17:10:57;81.05;;;42.65;;
22320;SDS011;11328;53.928;18.522;2022-12-10T17:13:56;78.45;;;40.03;;
22320;SDS011;11328;53.928;18.522;2022-12-10T17:16:24;74.22;;;38.20;;
22320;SDS011;11328;53.928;18.522;2022-12-10T17:18:51;74.35;;;38.78;;
22320;SDS011;11328;53.928;18.522;2022-12-10T17:21:19;107.22;;;53.13;;
22320;SDS011;11328;53.928;18.522;2022-12-10T17:23:49;101.75;;;50.65;;
22320;SDS011;11328;53.928;18.522;2022-12-10T17:26:37;90.05;;;46.58;;
22320;SDS011;11328;53.928;18.522;2022-12-10T17:31:42;73.25;;;40.22;;
22320;SDS011;11328;53.928;18.522;2022-12-10T17:34:11;72.05;;;39.90;;
22320;SDS011;11328;53.928;18.522;2022-12-10T17:36:39;80.13;;;43.45;;
22320;SDS011;11328;53.928;18.522;2022-12-10T17:39:12;76.50;;;42.30;;